PAIM

Details ICAO PAIM (UTO)
Name INDIAN MOUNTAIN LRRS
Region USA (Alaska)
Timezone America/Anchorage (UTC-8.0)
Plans Departing 3
Arriving 0
Stats Elevation 1,220 ft / 372 m (AMSL)
Location 65.992638° -153.703890°
Runways 1
Magnetic Variation 15.265° E
Sunrise 2018-05-24 12:00:21 UTC / 2018-05-24 04:00:21 Local
Sunset 2018-05-25 08:25:55 UTC / 2018-05-25 00:25:55 Local
Advertisement - Login to hide

Runways

ID Width Length Bearing (true) Bearing (mag) Surface Threshold Offset Overrun Length
06 120 ft / 37 m 4,073 ft / 1,241 m 82.83° 67.56° Gravel 0 ft / 0 m 0 ft / 0 m
24 120 ft / 37 m 4,073 ft / 1,241 m 262.85° 247.58° Gravel 0 ft / 0 m 0 ft / 0 m

Map

Weather


0- 5 10 15 20 25 30 35+ Temperature / ° C

Clouds and Precipitation
Forecast for 2018-05-24 18:00 UTC. Updated 4 hours ago

Ground ~20,000 ft ~40,000 ft Winds

METAR

PAIM 242055Z AUTO 00000KT 10SM CLR 13/00 A2964

TAF

Not found

Frequencies

Unicom 126.20 MHz CTAF
Warning: Do not use this data for real-world aviation or navigation. No guarantee of current accuracy is given.